Time;durP1;ratioP1;P1;durP2;ratioP2;P2;SDS_P1;SDS_P2;PMS_P1;PMS_P2;Temp;Humidity;BMP_temperature;BMP_pressure;BME280_temperature;BME280_humidity;BME280_pressure;Samples;Min_cycle;Max_cycle;Signal;HPM_P1;HPM_P2
2023/09/19 00:19:53;;;;;;;15.27;2.92;;;;;;;15.62;100.00;155326.25;6253460;22;20031;-77
2023/09/19 00:22:19;;;;;;;13.17;2.67;;;;;;;15.65;100.00;155334.06;6303729;22;20336;-77
2023/09/19 00:24:45;;;;;;;12.15;3.72;;;;;;;15.70;100.00;155347.06;6277500;22;20019;-77
2023/09/19 00:27:11;;;;;;;11.52;3.35;;;;;;;15.66;100.00;155336.66;6276963;22;20004;-76
2023/09/19 00:29:36;;;;;;;15.23;3.57;;;;;;;15.65;100.00;155334.06;6304636;22;20034;-77
2023/09/19 00:32:05;;;;;;;10.07;2.73;;;;;;;15.69;100.00;155345.75;6303504;22;20350;-77
2023/09/19 00:34:34;;;;;;;14.85;3.45;;;;;;;15.68;100.00;155341.88;6304357;22;20416;-77
2023/09/19 00:36:59;;;;;;;18.75;4.20;;;;;;;15.68;100.00;155343.16;6277755;22;19995;-77
2023/09/19 00:39:28;;;;;;;18.83;4.53;;;;;;;15.60;100.00;155322.38;6303506;22;20010;-77
2023/09/19 00:41:54;;;;;;;9.43;2.83;;;;;;;15.56;100.00;155310.66;6305025;22;20301;-77
2023/09/19 00:44:22;;;;;;;15.13;3.65;;;;;;;15.44;100.00;155280.78;6303593;22;20089;-77
2023/09/19 00:46:50;;;;;;;15.98;3.92;;;;;;;15.35;100.00;155257.38;6304231;22;20027;-77
2023/09/19 00:49:16;;;;;;;15.68;3.20;;;;;;;15.31;100.00;155245.66;6303986;22;20052;-77
2023/09/19 00:51:45;;;;;;;11.63;4.00;;;;;;;15.25;100.00;155231.34;6277805;22;19999;-77
2023/09/19 00:54:13;;;;;;;15.20;3.15;;;;;;;15.20;100.00;155218.34;6303860;22;20039;-77
2023/09/19 00:56:40;;;;;;;13.10;3.15;;;;;;;15.20;100.00;155217.06;6211953;22;20015;-76
2023/09/19 01:35:18;;;;;;;21.48;4.78;;;;;;;14.80;100.00;129087.16;6250813;22;20027;-75
2023/09/19 02:11:55;;;;;;;21.65;3.70;;;;;;;14.49;100.00;155032.59;6235157;22;20015;-78
2023/09/19 02:24:40;;;;;;;14.02;4.30;;;;;;;14.31;100.00;132534.44;6220568;22;20089;-74
2023/09/19 02:27:07;;;;;;;14.77;3.50;;;;;;;14.24;100.00;128965.13;6234629;22;20015;-73
2023/09/19 02:29:34;;;;;;;23.45;4.90;;;;;;;14.36;100.00;127570.50;6276762;22;20841;-74
2023/09/19 02:32:02;;;;;;;17.55;4.28;;;;;;;14.39;100.00;135753.13;6303547;22;20010;-73
2023/09/19 02:34:28;;;;;;;23.92;4.93;;;;;;;14.37;100.00;137171.97;6303610;22;20345;-74
2023/09/19 02:36:54;;;;;;;23.50;4.80;;;;;;;14.47;100.00;143249.56;6304111;22;20421;-73
2023/09/19 02:39:20;;;;;;;23.60;5.10;;;;;;;14.49;100.00;152741.44;6303812;22;20657;-73
2023/09/19 02:41:46;;;;;;;18.97;4.17;;;;;;;14.51;100.00;155039.09;6302854;22;20061;-74
2023/09/19 02:44:12;;;;;;;20.30;4.90;;;;;;;14.47;100.00;155028.69;6302104;22;20074;-74
2023/09/19 02:46:38;;;;;;;19.73;3.60;;;;;;;14.44;100.00;155019.59;6274495;22;20023;-74
2023/09/19 02:54:15;;;;;;;15.32;4.10;;;;;;;14.31;100.00;154987.13;6237656;22;20016;-72
2023/09/19 02:56:41;;;;;;;15.32;3.63;;;;;;;14.36;100.00;154998.84;6272773;22;20000;-73
2023/09/19 02:59:07;;;;;;;19.57;4.13;;;;;;;14.31;100.00;154985.88;6271885;22;20008;-74
2023/09/19 03:01:33;;;;;;;15.10;3.40;;;;;;;14.29;100.00;154980.66;6272417;22;20003;-74
2023/09/19 03:04:00;;;;;;;19.98;4.68;;;;;;;14.25;100.00;154971.56;6245295;22;20012;-73
2023/09/19 03:19:23;;;;;;;12.20;3.42;;;;;;;14.18;100.00;154953.34;6300061;22;20033;-73
2023/09/19 03:24:24;;;;;;;20.33;3.70;;;;;;;14.11;100.00;154933.88;6252674;22;20046;-74
2023/09/19 03:26:49;;;;;;;19.17;3.90;;;;;;;13.99;100.00;154904.00;6272368;22;20318;-73
2023/09/19 03:29:15;;;;;;;14.90;3.70;;;;;;;14.11;100.00;154933.88;6272614;22;20014;-74
2023/09/19 03:31:41;;;;;;;13.07;3.35;;;;;;;14.03;100.00;154914.41;6246252;22;20448;-74
2023/09/19 03:34:06;;;;;;;21.93;5.70;;;;;;;14.09;100.00;154929.97;6273910;22;20000;-74
2023/09/19 03:36:35;;;;;;;8.47;3.20;;;;;;;14.07;100.00;154923.47;6248009;22;20376;-73
2023/09/19 03:49:23;;;;;;;17.30;4.18;;;;;;;13.94;100.00;154889.75;6215977;22;20023;-76
2023/09/19 03:54:24;;;;;;;14.70;3.78;;;;;;;14.03;100.00;154914.41;6261397;22;20023;-75
2023/09/19 03:56:50;;;;;;;17.93;4.90;;;;;;;13.99;100.00;154902.72;6304451;22;20076;-76
2023/09/19 03:59:16;;;;;;;16.02;4.35;;;;;;;14.01;100.00;154909.22;6277096;22;20338;-76
2023/09/19 04:01:41;;;;;;;22.27;5.03;;;;;;;14.02;100.00;154910.50;6276849;22;20031;-77
2023/09/19 04:04:10;;;;;;;20.57;3.90;;;;;;;13.97;100.00;154898.81;6277412;22;20006;-78
2023/09/19 04:06:36;;;;;;;14.90;3.85;;;;;;;13.98;100.00;154901.41;6252201;22;20133;-77
2023/09/19 04:09:03;;;;;;;19.23;3.83;;;;;;;13.99;100.00;154904.00;6252679;22;20523;-78
2023/09/19 04:11:30;;;;;;;15.38;4.22;;;;;;;13.98;100.00;154900.16;6277084;22;20048;-78
2023/09/19 04:13:56;;;;;;;14.90;4.15;;;;;;;14.00;100.00;154905.31;6278173;22;20018;-75
2023/09/19 04:16:22;;;;;;;17.43;4.83;;;;;;;13.95;100.00;154893.66;6304170;22;19999;-77
2023/09/19 04:18:48;;;;;;;20.58;4.47;;;;;;;13.90;100.00;154880.66;6305375;22;20323;-76
2023/09/19 04:21:14;;;;;;;17.90;4.00;;;;;;;13.92;100.00;154884.56;6304448;22;19999;-75
2023/09/19 04:23:39;;;;;;;14.80;3.83;;;;;;;13.91;100.00;148329.91;6305193;22;20320;-77
2023/09/19 04:26:06;;;;;;;22.00;4.23;;;;;;;13.98;100.00;140996.56;6304536;22;20030;-76
2023/09/19 04:28:32;;;;;;;27.35;4.57;;;;;;;13.95;100.00;137786.81;6277492;22;19999;-76
2023/09/19 04:30:58;;;;;;;16.42;3.25;;;;;;;13.90;100.00;134574.22;6277632;22;20010;-76
2023/09/19 04:33:24;;;;;;;14.23;4.13;;;;;;;13.87;100.00;128530.31;6304636;22;20003;-76
2023/09/19 04:35:50;;;;;;;13.50;4.30;;;;;;;13.92;100.00;121449.25;6304739;22;20417;-78
2023/09/19 04:38:19;;;;;;;18.25;4.15;;;;;;;13.92;100.00;118970.00;6277416;22;20003;-77
2023/09/19 04:40:45;;;;;;;18.00;4.28;;;;;;;13.96;100.00;119687.22;6277101;22;19999;-77
2023/09/19 04:43:11;;;;;;;21.10;4.20;;;;;;;13.85;100.00;117186.28;6250686;22;20029;-77
2023/09/19 04:45:39;;;;;;;20.57;4.07;;;;;;;13.92;100.00;116492.28;6302531;22;20015;-77
2023/09/19 04:48:06;;;;;;;20.70;4.75;;;;;;;13.91;100.00;117199.06;6303254;22;20440;-77
2023/09/19 04:50:34;;;;;;;25.15;3.90;;;;;;;13.88;100.00;116838.31;6303842;22;20003;-79
2023/09/19 04:53:00;;;;;;;18.40;3.70;;;;;;;13.89;100.00;115072.28;6251724;22;20007;-78
2023/09/19 04:55:26;;;;;;;22.70;5.50;;;;;;;13.91;100.00;114014.09;6250751;22;20387;-76
2023/09/19 06:05:49;;;;;;;24.40;4.80;;;;;;;14.36;100.00;74656.28;6214304;22;20046;-76
2023/09/19 06:29:23;;;;;;;25.02;5.32;;;;;;;14.60;100.00;91550.09;6216897;22;20050;-74
2023/09/19 06:31:48;;;;;;;21.92;4.40;;;;;;;14.64;100.00;95431.22;6295930;22;20015;-77
2023/09/19 06:34:15;;;;;;;23.90;5.20;;;;;;;14.68;100.00;97552.94;6274426;22;20072;-76
2023/09/19 06:36:41;;;;;;;19.80;3.85;;;;;;;14.74;100.00;96857.44;6303849;22;20417;-75
2023/09/19 06:39:06;;;;;;;21.23;5.00;;;;;;;14.75;100.00;98623.41;6301378;22;20068;-77
2023/09/19 09:33:59;;;;;;;16.20;3.88;;;;;;;18.53;100.00;156083.72;6265828;22;20072;-76
2023/09/19 09:41:39;;;;;;;21.88;4.35;;;;;;;18.38;100.00;156044.63;6236287;22;20031;-73
2023/09/19 09:49:36;;;;;;;20.55;3.72;;;;;;;18.52;100.00;156081.13;6277946;22;20408;-74
2023/09/19 09:52:16;;;;;;;14.45;3.70;;;;;;;18.57;100.00;156095.44;6241039;22;20012;-75
2023/09/19 09:55:05;;;;;;;17.85;3.72;;;;;;;18.87;100.00;156173.63;6269043;22;20433;-75
2023/09/19 09:57:31;;;;;;;14.02;3.53;;;;;;;19.21;100.00;156260.94;6240082;22;20007;-74
2023/09/19 09:59:58;;;;;;;11.13;3.37;;;;;;;19.22;100.00;156263.59;6241966;22;20003;-75
2023/09/19 10:02:29;;;;;;;15.77;3.35;;;;;;;19.43;100.00;156318.34;6239918;22;20089;-75
2023/09/19 10:05:13;;;;;;;14.02;3.10;;;;;;;19.58;100.00;156357.47;6241481;22;20058;-74
2023/09/19 10:07:47;;;;;;;16.70;3.72;;;;;;;19.20;100.00;156258.34;6241933;22;20430;-75
2023/09/19 10:10:16;;;;;;;16.17;3.97;;;;;;;19.35;100.00;156297.47;6269243;22;20012;-75
2023/09/19 10:12:47;;;;;;;15.48;3.60;;;;;;;19.27;100.00;156277.91;6269017;22;20413;-74
2023/09/19 10:25:37;;;;;;;15.85;3.28;;;;;;;19.19;100.00;156255.72;6205034;22;20057;-76
2023/09/19 10:30:44;;;;;;;12.25;3.47;;;;;;;19.35;100.00;156297.47;6254549;22;20031;-73
2023/09/19 10:35:48;;;;;;;14.70;2.70;;;;;;;19.72;100.00;156393.94;6200677;23;20036;-75
2023/09/19 10:38:19;;;;;;;12.15;2.65;;;;;;;20.00;100.00;156467.00;6208018;23;20510;-75
2023/09/19 10:41:02;;;;;;;17.58;3.85;;;;;;;20.06;100.00;156483.91;6208115;23;20023;-75
2023/09/19 10:48:40;;;;;;;14.95;3.10;;;;;;;20.13;100.00;156500.94;6250577;22;20023;-76
2023/09/19 11:06:41;;;;;;;10.23;2.80;;;;;;;20.32;100.00;156551.81;6178653;23;20025;-75
2023/09/19 11:33:02;;;;;;;13.65;2.30;;;;;;;19.57;100.00;156354.81;6234596;22;20024;-74
2023/09/19 11:36:06;;;;;;;13.13;3.15;;;;;;;19.77;100.00;156408.31;6245542;22;20357;-75
2023/09/19 11:38:53;;;;;;;6.15;2.00;;;;;;;19.66;100.00;156378.31;6245663;22;20069;-77
2023/09/19 11:43:50;;;;;;;21.67;3.08;;;;;;;19.58;100.00;156357.47;6274856;22;20066;-74
2023/09/19 11:46:21;;;;;;;11.98;2.17;;;;;;;19.65;100.00;156375.72;6273065;22;20142;-75
2023/09/19 11:48:48;;;;;;;11.27;3.13;;;;;;;19.51;100.00;156339.19;6273482;22;19999;-75
2023/09/19 11:53:50;;;;;;;13.68;2.10;;;;;;;19.31;100.00;156288.34;6243068;22;20031;-75
2023/09/19 12:17:00;;;;;;;7.72;2.08;;;;;;;19.09;100.00;156229.63;6227864;22;20031;-75
2023/09/19 12:25:07;;;;;;;7.40;2.25;;;;;;;19.10;100.00;156232.28;6274444;22;20023;-79
2023/09/19 12:53:30;;;;;;;7.07;1.65;;;;;;;19.06;100.00;156221.84;6260153;22;20023;-77
2023/09/19 13:01:14;;;;;;;5.97;1.70;;;;;;;19.35;100.00;156297.47;6243232;22;20027;-78
2023/09/19 14:02:30;;;;;;;12.48;3.35;;;;;;;19.28;100.00;156279.22;6181531;23;20025;-77
2023/09/19 14:04:55;;;;;;;10.70;2.57;;;;;;;19.25;100.00;156272.72;6181451;23;20009;-75
2023/09/19 14:07:21;;;;;;;12.00;3.13;;;;;;;19.22;100.00;156264.88;6180740;23;20005;-76
2023/09/19 14:09:47;;;;;;;14.73;3.00;;;;;;;19.20;100.00;156258.34;6149716;23;20013;-77
2023/09/19 14:12:13;;;;;;;15.00;3.35;;;;;;;19.22;100.00;156263.59;6181233;23;20499;-77
2023/09/19 14:14:38;;;;;;;11.15;3.47;;;;;;;19.22;100.00;156263.59;6180433;23;20419;-77
2023/09/19 14:17:04;;;;;;;10.97;2.70;;;;;;;19.19;100.00;156257.03;6180412;23;20005;-75
2023/09/19 14:19:30;;;;;;;8.80;2.80;;;;;;;19.17;100.00;156251.84;6180384;23;20005;-75
2023/09/19 14:21:56;;;;;;;13.03;2.60;;;;;;;19.10;100.00;156232.28;6181104;23;20005;-75
2023/09/19 14:35:10;;;;;;;7.90;2.53;;;;;;;18.95;100.00;156193.19;6243214;22;20024;-75
2023/09/19 14:37:38;;;;;;;16.60;2.60;;;;;;;19.06;100.00;156221.84;6245054;22;20464;-74
2023/09/19 14:40:08;;;;;;;6.90;2.58;;;;;;;19.02;100.00;156212.72;6244038;22;20508;-74
2023/09/19 14:42:35;;;;;;;11.85;3.30;;;;;;;19.06;100.00;156223.13;6242483;22;20118;-74
2023/09/19 14:45:02;;;;;;;12.27;2.88;;;;;;;19.02;100.00;156212.72;6268701;22;20003;-74
2023/09/19 14:47:28;;;;;;;11.25;2.35;;;;;;;19.05;100.00;156219.25;6241108;22;20046;-74
2023/09/19 14:49:58;;;;;;;14.32;3.28;;;;;;;19.02;100.00;156211.41;6266941;22;20003;-75
2023/09/19 14:52:23;;;;;;;8.98;2.83;;;;;;;19.02;100.00;156211.41;6241150;22;20014;-75
2023/09/19 15:31:09;;;;;;;12.48;2.80;;;;;;;19.00;100.00;156206.22;6255877;22;20358;-74
2023/09/19 15:46:35;;;;;;;13.27;2.55;;;;;;;19.04;100.00;156216.66;6245517;22;20023;-75
2023/09/19 15:49:02;;;;;;;13.93;3.10;;;;;;;19.00;100.00;156206.22;6241386;22;20090;-75
2023/09/19 16:06:59;;;;;;;13.82;3.10;;;;;;;18.67;100.00;156120.22;6251683;22;20026;-74
2023/09/19 16:19:45;;;;;;;13.85;2.88;;;;;;;18.70;100.00;156129.34;6245435;22;20068;-75
2023/09/19 17:15:08;;;;;;;10.18;3.33;;;;;;;18.00;100.00;155946.94;6244301;22;20035;-74
2023/09/19 17:36:27;;;;;;;13.73;3.47;;;;;;;17.44;100.00;93402.53;6195719;22;20054;-77
2023/09/19 17:38:54;;;;;;;12.57;3.80;;;;;;;17.45;100.00;83507.13;6294223;22;20033;-75
2023/09/19 17:41:22;;;;;;;15.48;4.13;;;;;;;17.30;100.00;73969.31;6301851;22;20080;-75
2023/09/19 17:43:53;;;;;;;12.35;3.47;;;;;;;17.24;100.00;64467.94;6302629;22;20109;-75
2023/09/19 18:14:46;;;;;;;15.55;3.88;;;;;;;16.88;100.00;52512.28;6275711;22;20369;-79
2023/09/19 19:40:59;;;;;;;16.27;4.22;;;;;;;17.28;100.00;80661.09;6248618;22;20510;-74
2023/09/19 19:45:57;;;;;;;16.52;3.85;;;;;;;17.36;100.00;87378.81;6227178;22;20023;-75
2023/09/19 19:48:24;;;;;;;12.20;3.47;;;;;;;17.32;100.00;88432.91;6275048;22;20011;-77
2023/09/19 19:50:49;;;;;;;;;;;;;;;17.38;100.00;90562.72;6278419;22;20091;-76
2023/09/19 19:53:14;;;;;;;17.55;4.63;;;;;;;17.37;100.00;93745.44;6305687;22;20357;-78
2023/09/19 20:17:06;;;;;;;12.35;3.33;;;;;;;17.40;100.00;109349.72;6209808;22;20116;-77
2023/09/19 22:07:31;;;;;;;16.92;4.30;;;;;;;17.73;100.00;117593.13;6270299;22;20023;-76
2023/09/19 22:30:44;;;;;;;13.88;5.25;;;;;;;17.84;100.00;135106.22;6242478;22;20060;-75
2023/09/19 22:33:16;;;;;;;15.48;4.82;;;;;;;17.91;100.00;144793.16;6272824;22;20078;-76
2023/09/19 22:35:51;;;;;;;13.32;4.15;;;;;;;17.84;100.00;150487.72;6245760;22;20061;-74
2023/09/19 23:02:28;;;;;;;15.93;4.03;;;;;;;17.84;100.00;144059.16;6231232;22;20121;-76
2023/09/19 23:05:01;;;;;;;13.82;3.80;;;;;;;17.84;100.00;145493.44;6246040;22;20023;-75
2023/09/19 23:07:28;;;;;;;13.40;4.30;;;;;;;17.80;100.00;141182.69;6273132;22;20368;-74
2023/09/19 23:22:53;;;;;;;11.38;4.63;;;;;;;17.91;100.00;137270.34;6235016;22;20020;-74
2023/09/19 23:40:53;;;;;;;18.70;4.78;;;;;;;17.63;100.00;122205.19;6251294;22;20027;-74
2023/09/19 23:43:23;;;;;;;17.02;4.10;;;;;;;17.66;100.00;117580.34;6244959;22;20319;-74
2023/09/19 23:45:49;;;;;;;16.98;5.00;;;;;;;17.73;100.00;114389.06;6245498;22;20007;-74
2023/09/19 23:48:16;;;;;;;16.97;4.33;;;;;;;17.75;100.00;118310.41;6272386;22;20544;-74
2023/09/19 23:50:43;;;;;;;13.65;3.72;;;;;;;17.77;100.00;121521.69;6246613;22;20792;-73
2023/09/19 23:53:12;;;;;;;18.50;4.60;;;;;;;17.69;100.00;121504.44;6274092;22;20061;-72
2023/09/19 23:55:38;;;;;;;11.55;4.47;;;;;;;17.68;100.00;119364.25;6247460;22;20086;-74
2023/09/19 23:58:05;;;;;;;15.55;5.45;;;;;;;17.62;100.00;118284.72;6247291;22;20018;-73
